Time;durP1;ratioP1;P1;durP2;ratioP2;P2;SDS_P1;SDS_P2;PMS_P1;PMS_P2;Temp;Humidity;BMP_temperature;BMP_pressure;BME280_temperature;BME280_humidity;BME280_pressure;Samples;Min_cycle;Max_cycle;Signal;HPM_P1;HPM_P2
2023/09/30 07:28:17;;;;;;;92.07;21.70;;;12.10;99.90;;;;;;6134703;22;93817;-77
2023/09/30 07:30:44;;;;;;;104.82;23.90;;;12.10;99.90;;;;;;6140910;22;92916;-77
2023/09/30 07:33:10;;;;;;;128.07;24.80;;;12.20;99.90;;;;;;6138677;22;92202;-77
2023/09/30 07:35:38;;;;;;;90.13;23.92;;;12.30;99.90;;;;;;6146025;22;92729;-77
2023/09/30 07:38:04;;;;;;;75.25;22.33;;;12.40;99.90;;;;;;6141733;22;92735;-77
2023/09/30 07:40:30;;;;;;;128.57;26.17;;;12.50;99.90;;;;;;6139686;22;93792;-78
2023/09/30 07:42:56;;;;;;;164.15;27.50;;;12.50;99.90;;;;;;6141730;22;93483;-76
2023/09/30 07:45:22;;;;;;;113.18;25.67;;;12.60;99.90;;;;;;6142026;22;92461;-77
2023/09/30 07:47:49;;;;;;;92.88;25.90;;;12.70;99.90;;;;;;6140209;22;92944;-78
2023/09/30 07:50:14;;;;;;;100.82;24.85;;;12.90;99.90;;;;;;6145389;22;92776;-76
2023/09/30 07:52:41;;;;;;;72.05;23.15;;;13.00;99.90;;;;;;6134696;22;92989;-77
2023/09/30 07:55:10;;;;;;;94.28;24.65;;;13.00;99.90;;;;;;6140964;22;93010;-77
2023/09/30 07:57:37;;;;;;;105.60;26.13;;;13.10;99.90;;;;;;6164542;22;92123;-77
2023/09/30 08:00:08;;;;;;;71.25;24.40;;;13.20;99.90;;;;;;6165773;22;92492;-77
2023/09/30 08:02:34;;;;;;;71.50;24.38;;;13.30;99.90;;;;;;6141823;22;93740;-77
2023/09/30 08:05:00;;;;;;;65.20;23.10;;;13.40;99.90;;;;;;6138537;22;93825;-76
2023/09/30 08:07:26;;;;;;;82.43;25.50;;;13.50;99.90;;;;;;6140558;22;92621;-78
2023/09/30 08:09:52;;;;;;;70.15;24.13;;;13.60;99.90;;;;;;6140452;22;92496;-76
2023/09/30 08:12:17;;;;;;;66.95;23.88;;;13.60;99.90;;;;;;6140353;22;96593;-77
2023/09/30 08:14:46;;;;;;;79.18;25.88;;;13.70;99.90;;;;;;6140113;22;96681;-74
2023/09/30 08:17:12;;;;;;;83.07;25.55;;;13.80;99.90;;;;;;6141557;22;92575;-75
2023/09/30 08:19:37;;;;;;;64.63;22.83;;;13.90;99.90;;;;;;6142056;22;92407;-77
2023/09/30 08:22:03;;;;;;;75.53;25.15;;;14.00;99.90;;;;;;6140036;22;92045;-77
2023/09/30 08:24:32;;;;;;;60.25;23.10;;;14.00;99.90;;;;;;6138321;22;92780;-74
2023/09/30 08:26:57;;;;;;;54.33;21.88;;;14.10;99.90;;;;;;6135250;22;92602;-77
2023/09/30 08:29:23;;;;;;;56.78;22.55;;;14.20;99.90;;;;;;6135532;22;93794;-78
2023/09/30 08:31:50;;;;;;;48.72;21.88;;;14.20;99.90;;;;;;6135326;22;96647;-78
2023/09/30 08:34:17;;;;;;;68.13;25.10;;;14.30;99.90;;;;;;6137971;22;93648;-78
2023/09/30 08:36:43;;;;;;;49.33;20.50;;;14.40;99.90;;;;;;6137854;22;92927;-78
2023/09/30 08:39:12;;;;;;;47.60;20.08;;;14.50;99.90;;;;;;6140192;22;93144;-79
2023/09/30 08:41:38;;;;;;;44.92;20.15;;;14.50;99.90;;;;;;6139560;22;93220;-79
2023/09/30 08:44:04;;;;;;;39.70;18.10;;;14.70;99.90;;;;;;6140008;22;92957;-78
2023/09/30 08:46:32;;;;;;;33.60;16.13;;;14.70;99.90;;;;;;6141875;22;91546;-78
2023/09/30 08:49:00;;;;;;;32.75;16.13;;;14.80;99.90;;;;;;6165192;22;92613;-79
2023/09/30 08:51:28;;;;;;;31.85;16.63;;;15.00;99.90;;;;;;6139316;22;96525;-79
2023/09/30 08:53:56;;;;;;;27.75;15.52;;;15.10;99.90;;;;;;6164081;22;95781;-79
2023/09/30 08:56:26;;;;;;;30.80;15.45;;;15.20;99.90;;;;;;6143188;22;92396;-79
2023/09/30 08:58:54;;;;;;;32.03;16.30;;;15.20;99.90;;;;;;6140497;22;92633;-76
2023/09/30 09:01:20;;;;;;;29.90;15.95;;;15.30;99.90;;;;;;6139605;22;96195;-77
2023/09/30 09:03:52;;;;;;;31.10;15.93;;;15.30;99.90;;;;;;6138098;22;93302;-76
2023/09/30 09:06:19;;;;;;;28.75;16.15;;;15.40;99.90;;;;;;6138945;22;92672;-76
2023/09/30 09:08:45;;;;;;;25.58;15.52;;;15.50;99.90;;;;;;6163707;22;92815;-77
2023/09/30 09:11:10;;;;;;;26.17;15.57;;;15.50;99.90;;;;;;6143704;22;92247;-76
2023/09/30 09:13:53;;;;;;;28.13;15.07;;;15.50;99.90;;;;;;6141119;22;92572;-75
2023/09/30 09:16:19;;;;;;;24.02;14.15;;;15.60;99.90;;;;;;6141042;22;93004;-76
2023/09/30 09:18:47;;;;;;;22.90;13.48;;;15.60;99.90;;;;;;6139037;22;93543;-76
2023/09/30 09:21:19;;;;;;;25.48;14.05;;;15.70;99.90;;;;;;6140081;22;93511;-76
2023/09/30 09:23:51;;;;;;;23.48;13.65;;;15.80;99.90;;;;;;6142142;22;93124;-76
2023/09/30 09:26:24;;;;;;;24.35;14.02;;;16.00;99.90;;;;;;6141099;22;92492;-75
2023/09/30 09:28:50;;;;;;;23.30;12.87;;;16.00;99.90;;;;;;6140037;22;92948;-76
2023/09/30 09:31:36;;;;;;;28.73;13.48;;;16.10;99.90;;;;;;6139430;22;94045;-76
2023/09/30 09:34:14;;;;;;;20.83;12.75;;;16.10;99.90;;;;;;6139817;22;93277;-76
2023/09/30 09:36:44;;;;;;;23.85;13.95;;;16.20;99.90;;;;;;6140553;22;92135;-76
2023/09/30 09:39:13;;;;;;;28.08;13.98;;;16.40;99.90;;;;;;6140233;22;92851;-76
2023/09/30 09:42:01;;;;;;;22.83;13.25;;;16.50;99.90;;;;;;6143572;22;93428;-76
2023/09/30 09:44:27;;;;;;;24.45;13.57;;;16.60;99.90;;;;;;6141185;22;97608;-76
2023/09/30 09:46:53;;;;;;;21.70;13.15;;;16.70;99.90;;;;;;6142885;22;92732;-76
2023/09/30 09:49:20;;;;;;;25.27;14.57;;;16.70;99.90;;;;;;6142051;22;92791;-76
2023/09/30 09:51:47;;;;;;;24.63;13.85;;;16.80;99.90;;;;;;6144859;22;92967;-77
2023/09/30 09:54:13;;;;;;;21.00;12.25;;;16.90;99.90;;;;;;6154072;22;93080;-77
2023/09/30 09:56:39;;;;;;;25.25;12.80;;;17.10;99.90;;;;;;6149595;22;92777;-78
2023/09/30 09:59:06;;;;;;;22.23;12.23;;;17.30;99.90;;;;;;6145461;22;92690;-78
2023/09/30 10:01:34;;;;;;;25.23;12.25;;;17.40;99.90;;;;;;6145673;22;92106;-77
2023/09/30 10:04:01;;;;;;;16.48;10.07;;;17.50;99.90;;;;;;6145198;22;92861;-76
2023/09/30 10:06:27;;;;;;;17.38;10.52;;;17.70;99.90;;;;;;6144252;22;93027;-77
2023/09/30 10:08:54;;;;;;;18.90;10.85;;;17.80;99.90;;;;;;6143702;22;93417;-77
2023/09/30 10:11:22;;;;;;;16.90;9.98;;;18.00;99.90;;;;;;6142964;22;93716;-76
2023/09/30 10:14:03;;;;;;;16.23;10.60;;;18.10;99.90;;;;;;6139396;22;93406;-76
2023/09/30 10:16:37;;;;;;;18.35;10.70;;;18.30;99.90;;;;;;6140630;22;92886;-76
2023/09/30 10:19:12;;;;;;;16.20;11.45;;;18.40;99.90;;;;;;6140003;22;92269;-77
2023/09/30 10:21:39;;;;;;;14.50;9.30;;;18.50;99.90;;;;;;6139895;22;94675;-77
2023/09/30 10:24:40;;;;;;;14.32;10.00;;;18.60;99.90;;;;;;6163324;22;96644;-76
2023/09/30 10:27:24;;;;;;;14.65;8.98;;;18.70;99.90;;;;;;6076042;23;92078;-76
2023/09/30 10:30:19;;;;;;;14.35;9.68;;;18.80;99.90;;;;;;6132876;22;92620;-77
2023/09/30 10:32:50;;;;;;;17.40;10.95;;;18.80;99.90;;;;;;6138460;22;94035;-76
2023/09/30 10:35:36;;;;;;;16.58;9.77;;;18.80;99.90;;;;;;6139372;22;96700;-76
2023/09/30 10:38:27;;;;;;;17.10;10.75;;;18.90;99.90;;;;;;6139137;22;93531;-76
2023/09/30 10:40:53;;;;;;;16.27;10.13;;;18.90;99.90;;;;;;6144910;22;92371;-76
2023/09/30 10:43:36;;;;;;;14.63;9.55;;;18.90;99.90;;;;;;6143733;22;93046;-77
2023/09/30 10:46:29;;;;;;;19.60;10.50;;;18.90;99.90;;;;;;6141964;22;94825;-76
2023/09/30 10:48:55;;;;;;;16.95;10.40;;;18.90;99.90;;;;;;6135870;22;92514;-76
2023/09/30 10:51:21;;;;;;;13.55;9.57;;;18.80;99.90;;;;;;6140911;22;92694;-76
2023/09/30 10:54:07;;;;;;;18.85;10.20;;;18.80;99.90;;;;;;6143843;22;93689;-77
2023/09/30 10:56:34;;;;;;;15.05;10.18;;;18.80;99.90;;;;;;6142883;22;96447;-76
2023/09/30 10:59:02;;;;;;;17.38;9.50;;;18.80;99.80;;;;;;6143203;22;92636;-76
2023/09/30 11:01:33;;;;;;;15.85;9.38;;;18.70;99.50;;;;;;6143418;22;93423;-76
2023/09/30 11:04:04;;;;;;;13.68;9.15;;;18.70;99.60;;;;;;6143049;22;94149;-77
2023/09/30 11:06:31;;;;;;;16.13;9.95;;;18.70;99.60;;;;;;6142563;22;94969;-78
2023/09/30 11:09:03;;;;;;;14.57;9.63;;;18.70;99.90;;;;;;6168495;22;93002;-76
2023/09/30 11:11:33;;;;;;;18.52;9.75;;;18.80;99.90;;;;;;6144917;22;92695;-76
2023/09/30 11:13:58;;;;;;;16.98;9.95;;;18.90;99.90;;;;;;6146704;22;94467;-79
2023/09/30 11:16:24;;;;;;;14.40;9.38;;;19.00;98.90;;;;;;6149099;22;92426;-80
2023/09/30 11:18:53;;;;;;;15.40;9.30;;;19.10;98.60;;;;;;6163945;22;92254;-78
2023/09/30 11:26:33;;;;;;;11.88;7.55;;;19.50;98.20;;;;;;6149101;22;93859;-78
2023/09/30 11:29:06;;;;;;;16.55;9.50;;;19.70;99.70;;;;;;6106894;22;93741;-79
2023/09/30 11:31:34;;;;;;;13.27;7.28;;;20.10;98.80;;;;;;6157372;22;92934;-80
2023/09/30 11:34:03;;;;;;;15.40;7.47;;;20.20;96.90;;;;;;6190652;22;95052;-79
2023/09/30 11:36:33;;;;;;;16.60;8.88;;;20.30;97.20;;;;;;6158516;22;92879;-79
2023/09/30 11:39:02;;;;;;;18.10;9.20;;;20.50;96.50;;;;;;6153687;22;92967;-79
2023/09/30 11:51:49;;;;;;;12.95;6.72;;;20.60;96.10;;;;;;6149399;22;94394;-77
2023/09/30 11:54:16;;;;;;;14.38;7.15;;;20.60;94.80;;;;;;6174101;22;95888;-80
2023/09/30 11:56:42;;;;;;;10.45;6.50;;;20.60;94.90;;;;;;6175072;22;96056;-77
2023/09/30 11:59:10;;;;;;;13.77;6.85;;;20.60;95.00;;;;;;6157360;22;92066;-79
2023/09/30 12:01:37;;;;;;;15.88;7.32;;;20.60;93.70;;;;;;6159007;22;92566;-79
2023/09/30 12:07:00;;;;;;;11.80;7.70;;;20.80;94.90;;;;;;6166273;22;92687;-77
2023/09/30 12:13:40;;;;;;;12.73;6.47;;;21.10;94.40;;;;;;6148740;22;93302;-78
2023/09/30 12:16:35;;;;;;;;;;;;;;;;;;;;;
2023/09/30 12:29:55;;;;;;;;;;;;;;;;;;;;;
2023/09/30 12:32:46;;;;;;;11.10;4.65;;;22.40;90.00;;;;;;5969325;23;120485;-78
2023/09/30 12:39:22;;;;;;;;;;;;;;;;;;;;;
2023/09/30 12:42:09;;;;;;;;;;;;;;;;;;;;;
2023/09/30 12:45:16;;;;;;;;;;;;;;;;;;;;;
2023/09/30 12:48:48;;;;;;;5.82;3.38;;;24.00;75.00;;;;;;6138453;22;113835;-79
2023/09/30 12:51:26;;;;;;;;;;;;;;;;;;;;;
2023/09/30 12:53:57;;;;;;;6.30;3.63;;;24.30;74.30;;;;;;6152840;22;122350;-78
2023/09/30 12:56:35;;;;;;;8.55;4.47;;;24.40;73.20;;;;;;6168666;22;96177;-78
2023/09/30 12:59:16;;;;;;;7.05;3.92;;;24.30;72.00;;;;;;6151324;22;92672;-78
2023/09/30 13:01:51;;;;;;;;;;;;;;;;;;;;;
2023/09/30 13:04:42;;;;;;;7.38;3.90;;;24.20;71.70;;;;;;6156988;22;122340;-77
2023/09/30 13:07:34;;;;;;;6.60;4.00;;;24.20;71.30;;;;;;6166324;22;96640;-77
2023/09/30 13:10:53;;;;;;;6.57;3.58;;;24.20;72.30;;;;;;6147115;22;91980;-77
2023/09/30 13:16:13;;;;;;;6.75;3.17;;;24.60;72.60;;;;;;6160924;22;95221;-77
2023/09/30 13:19:21;;;;;;;5.78;3.55;;;24.50;66.90;;;;;;6155497;22;96166;-77
2023/09/30 13:22:26;;;;;;;7.60;3.28;;;24.30;66.80;;;;;;6162563;22;92750;-78
2023/09/30 13:25:36;;;;;;;6.63;3.28;;;24.20;68.80;;;;;;6161297;22;92698;-78
2023/09/30 13:49:42;;;;;;;7.70;3.58;;;24.90;65.10;;;;;;5850899;24;92767;-78
2023/09/30 13:52:38;;;;;;;6.45;3.13;;;25.20;65.10;;;;;;5819890;23;93770;-81
2023/09/30 13:55:27;;;;;;;6.63;3.67;;;25.40;62.30;;;;;;5808808;24;94507;-80
2023/09/30 13:58:18;;;;;;;7.90;3.03;;;25.50;61.20;;;;;;5841344;23;96776;-79
2023/09/30 14:05:23;;;;;;;;;;;;;;;;;;;;;
2023/09/30 14:18:39;;;;;;;7.15;4.18;;;27.60;61.20;;;;;;5833525;23;92340;-79
2023/09/30 14:21:45;;;;;;;8.52;3.83;;;27.80;55.70;;;;;;5972808;23;96538;-78
2023/09/30 14:30:54;;;;;;;5.75;3.30;;;28.00;53.40;;;;;;6124283;22;92970;-76
2023/09/30 14:33:20;;;;;;;7.03;3.60;;;27.90;51.50;;;;;;6165436;22;94573;-76
2023/09/30 14:35:45;;;;;;;5.22;3.00;;;27.50;51.10;;;;;;6140806;22;92931;-76
2023/09/30 14:38:12;;;;;;;6.38;3.58;;;27.40;51.80;;;;;;6139938;22;92671;-81
2023/09/30 14:40:40;;;;;;;7.32;3.80;;;27.40;51.10;;;;;;6138849;22;92771;-82
2023/09/30 14:43:09;;;;;;;6.10;3.70;;;27.60;53.20;;;;;;6140453;22;93502;-84
2023/09/30 14:45:39;;;;;;;6.78;4.13;;;27.50;52.30;;;;;;6140794;22;92721;-83
2023/09/30 14:48:06;;;;;;;9.80;3.78;;;27.50;52.60;;;;;;6140185;22;92603;-84
2023/09/30 14:50:32;;;;;;;7.32;3.95;;;27.60;53.70;;;;;;6141528;22;93495;-84
2023/09/30 14:52:58;;;;;;;9.82;3.70;;;27.90;54.20;;;;;;6164451;22;93709;-83
2023/09/30 14:55:24;;;;;;;7.80;3.92;;;28.10;52.40;;;;;;6140833;22;93338;-80
2023/09/30 14:57:50;;;;;;;5.82;3.90;;;28.30;51.90;;;;;;6161999;22;92617;-82
2023/09/30 15:00:17;;;;;;;6.72;4.13;;;28.30;49.90;;;;;;6137437;22;92535;-85
2023/09/30 15:02:43;;;;;;;9.77;4.20;;;28.30;50.60;;;;;;6139592;22;94075;-84
2023/09/30 15:05:09;;;;;;;8.77;3.92;;;28.30;50.70;;;;;;6143935;22;97920;-84
2023/09/30 15:07:37;;;;;;;7.47;3.08;;;28.50;50.00;;;;;;6142956;22;91376;-81
2023/09/30 15:10:04;;;;;;;6.75;3.42;;;28.60;50.70;;;;;;6143333;22;92634;-83
2023/09/30 15:12:30;;;;;;;8.05;3.65;;;28.80;53.80;;;;;;6147631;22;97932;-82
2023/09/30 15:14:55;;;;;;;5.45;3.00;;;28.80;51.90;;;;;;6146777;22;94554;-84
2023/09/30 15:17:24;;;;;;;7.47;3.72;;;28.80;52.10;;;;;;6149064;22;92466;-86
2023/09/30 15:20:20;;;;;;;7.25;2.70;;;29.00;52.40;;;;;;6147519;22;92242;-85
2023/09/30 15:22:46;;;;;;;5.53;2.53;;;29.20;52.10;;;;;;6151306;22;93117;-85
2023/09/30 15:25:29;;;;;;;4.40;2.35;;;29.30;48.60;;;;;;6140230;22;94985;-85
2023/09/30 15:28:14;;;;;;;3.90;2.35;;;29.20;47.50;;;;;;6141706;22;92469;-85
2023/09/30 15:30:42;;;;;;;5.43;2.88;;;29.00;48.50;;;;;;6175565;22;92792;-84
2023/09/30 15:33:22;;;;;;;6.03;2.78;;;28.90;48.00;;;;;;6123499;22;92646;-85
2023/09/30 15:35:53;;;;;;;5.85;2.70;;;28.60;48.60;;;;;;6149577;22;94557;-84
2023/09/30 15:38:19;;;;;;;6.90;3.20;;;28.80;49.10;;;;;;6151076;22;92221;-84
2023/09/30 15:41:01;;;;;;;7.28;2.90;;;28.80;48.00;;;;;;6147904;22;93565;-83
2023/09/30 15:43:27;;;;;;;6.03;2.60;;;28.80;47.70;;;;;;6158539;22;93184;-82
2023/09/30 15:45:55;;;;;;;6.55;2.03;;;28.90;48.40;;;;;;6114984;22;93836;-83
2023/09/30 15:48:24;;;;;;;5.43;2.40;;;28.90;47.70;;;;;;6148703;22;92551;-83
2023/09/30 15:50:49;;;;;;;5.13;1.98;;;29.00;48.30;;;;;;6112270;22;92531;-86
2023/09/30 15:53:18;;;;;;;4.45;2.50;;;29.00;47.50;;;;;;6150736;22;96171;-84
2023/09/30 15:55:44;;;;;;;4.25;2.03;;;29.20;46.10;;;;;;6151240;22;93135;-83
2023/09/30 15:58:10;;;;;;;5.03;2.08;;;28.90;45.70;;;;;;6143251;22;91893;-82
2023/09/30 16:00:39;;;;;;;4.40;2.17;;;28.80;47.00;;;;;;6176372;22;92699;-82
2023/09/30 16:03:06;;;;;;;5.68;2.30;;;28.50;45.80;;;;;;6150789;22;93553;-82
2023/09/30 16:05:33;;;;;;;4.93;2.08;;;28.50;47.20;;;;;;6149752;22;94417;-85
2023/09/30 16:07:59;;;;;;;4.72;2.30;;;28.40;46.70;;;;;;6151318;22;93042;-83
2023/09/30 16:10:24;;;;;;;4.97;2.20;;;27.90;48.60;;;;;;6151427;22;92208;-81
2023/09/30 16:12:50;;;;;;;4.38;2.13;;;27.50;50.00;;;;;;6150492;22;96053;-84
2023/09/30 16:15:16;;;;;;;4.60;2.15;;;27.20;52.40;;;;;;6150114;22;92848;-83
2023/09/30 16:17:42;;;;;;;3.70;2.20;;;26.90;52.00;;;;;;6150836;22;92459;-81
2023/09/30 16:20:08;;;;;;;7.40;2.83;;;26.70;53.10;;;;;;6149647;22;94522;-82
2023/09/30 16:22:35;;;;;;;3.92;1.98;;;26.50;55.00;;;;;;6174515;22;95920;-83
2023/09/30 16:25:05;;;;;;;5.07;1.83;;;26.30;55.40;;;;;;6150554;22;92714;-84
2023/09/30 16:27:34;;;;;;;5.97;2.10;;;26.30;59.20;;;;;;6149883;22;92635;-82
2023/09/30 16:30:00;;;;;;;3.83;2.03;;;26.20;59.10;;;;;;6150198;22;93347;-82
2023/09/30 16:32:26;;;;;;;4.68;2.50;;;26.10;58.50;;;;;;6151542;22;92357;-82
2023/09/30 16:34:51;;;;;;;5.20;1.90;;;26.00;57.80;;;;;;6148399;22;94470;-82
2023/09/30 16:37:17;;;;;;;3.95;2.30;;;26.00;58.30;;;;;;6151272;22;92604;-80
2023/09/30 16:39:43;;;;;;;3.78;2.13;;;25.90;59.40;;;;;;6149540;22;92251;-80
2023/09/30 16:42:08;;;;;;;4.03;2.20;;;25.80;59.90;;;;;;6150186;22;92877;-80
2023/09/30 16:44:34;;;;;;;4.55;2.10;;;25.70;60.30;;;;;;6182090;22;94216;-79
2023/09/30 16:47:00;;;;;;;6.95;4.15;;;25.60;61.30;;;;;;6174976;22;92082;-80
2023/09/30 16:49:25;;;;;;;15.88;9.40;;;25.40;62.20;;;;;;6178014;22;92435;-79
2023/09/30 16:51:53;;;;;;;8.65;5.63;;;25.30;62.80;;;;;;6201343;22;94753;-80
2023/09/30 16:54:19;;;;;;;8.65;4.30;;;25.10;63.40;;;;;;6178117;22;92878;-80
2023/09/30 16:56:44;;;;;;;7.93;4.18;;;24.90;64.00;;;;;;6202019;22;91701;-81
2023/09/30 16:59:10;;;;;;;6.57;3.25;;;24.60;64.90;;;;;;6174377;22;92033;-81
2023/09/30 17:01:37;;;;;;;5.95;2.67;;;24.30;66.00;;;;;;6170050;22;95525;-81
2023/09/30 17:04:03;;;;;;;7.10;3.13;;;24.00;66.50;;;;;;6175311;22;91951;-82
2023/09/30 17:06:29;;;;;;;6.45;3.08;;;23.70;67.10;;;;;;6171867;22;91921;-81
2023/09/30 17:08:55;;;;;;;4.60;2.65;;;23.40;68.10;;;;;;6171160;22;92139;-79
2023/09/30 17:11:21;;;;;;;5.57;2.70;;;23.10;69.00;;;;;;6172011;22;93034;-81
2023/09/30 17:13:47;;;;;;;5.38;2.40;;;22.80;70.30;;;;;;6195397;22;94368;-81
2023/09/30 17:16:22;;;;;;;4.55;2.38;;;22.50;72.00;;;;;;6171841;22;92431;-80
2023/09/30 17:18:49;;;;;;;4.60;2.50;;;22.20;73.00;;;;;;6173746;22;92737;-80
2023/09/30 17:21:15;;;;;;;7.03;2.42;;;21.90;73.60;;;;;;6172435;22;92305;-80
2023/09/30 17:23:42;;;;;;;4.85;3.00;;;21.60;74.60;;;;;;6172453;22;92708;-80
2023/09/30 17:26:09;;;;;;;13.20;3.28;;;21.30;76.70;;;;;;6169621;22;92030;-80
2023/09/30 17:28:35;;;;;;;8.57;3.88;;;21.00;77.40;;;;;;6172029;22;92733;-80
2023/09/30 17:31:03;;;;;;;6.60;3.65;;;20.70;78.90;;;;;;6169282;22;93257;-81
2023/09/30 17:33:30;;;;;;;9.80;4.55;;;20.50;79.80;;;;;;6171251;22;94164;-80
2023/09/30 17:36:03;;;;;;;8.20;4.43;;;20.20;81.50;;;;;;6198727;22;91280;-80
2023/09/30 17:38:29;;;;;;;;;;;19.90;82.60;;;;;;6171420;22;92400;-80
2023/09/30 17:41:07;;;;;;;7.00;3.40;;;19.60;83.90;;;;;;6170912;22;96652;-80
2023/09/30 17:43:34;;;;;;;6.38;2.88;;;19.40;85.40;;;;;;6192797;22;93488;-79
2023/09/30 17:46:20;;;;;;;7.65;2.90;;;19.10;87.00;;;;;;6194897;22;92147;-79
2023/09/30 17:48:48;;;;;;;10.13;2.58;;;18.80;88.70;;;;;;6167174;22;92062;-80
2023/09/30 17:51:19;;;;;;;5.72;2.90;;;18.60;90.40;;;;;;6167713;22;92821;-79
2023/09/30 17:53:47;;;;;;;5.88;3.20;;;18.50;91.20;;;;;;6169489;22;92733;-80
2023/09/30 17:56:20;;;;;;;4.78;2.70;;;18.20;92.20;;;;;;6167296;22;92740;-81
2023/09/30 17:58:46;;;;;;;8.60;3.10;;;17.90;93.00;;;;;;6170029;22;92147;-80
2023/09/30 18:01:21;;;;;;;6.97;2.80;;;17.70;93.60;;;;;;6167075;22;92015;-80
2023/09/30 18:03:47;;;;;;;14.57;5.75;;;17.40;94.50;;;;;;6167539;22;93862;-81
2023/09/30 18:06:13;;;;;;;22.83;8.00;;;17.30;95.10;;;;;;6174043;22;92515;-80
2023/09/30 18:08:40;;;;;;;44.47;15.95;;;17.10;95.60;;;;;;6196123;22;93412;-80
2023/09/30 18:11:08;;;;;;;69.63;22.30;;;16.90;96.20;;;;;;6170257;22;95782;-80
2023/09/30 18:13:34;;;;;;;65.03;21.65;;;16.70;96.80;;;;;;6174376;22;92321;-79
2023/09/30 18:16:02;;;;;;;62.50;20.05;;;16.60;97.10;;;;;;6172894;22;92270;-81
2023/09/30 18:18:29;;;;;;;53.05;17.85;;;16.40;97.50;;;;;;6175263;22;92164;-80
2023/09/30 18:20:55;;;;;;;50.92;17.52;;;16.30;97.90;;;;;;6172047;22;92944;-80
2023/09/30 18:23:20;;;;;;;46.60;16.10;;;16.10;98.40;;;;;;6173605;22;92556;-80
2023/09/30 18:25:47;;;;;;;32.50;11.05;;;16.00;98.80;;;;;;6173739;22;92717;-80
2023/09/30 18:28:13;;;;;;;26.30;10.02;;;15.80;99.20;;;;;;6173246;22;92216;-80
2023/09/30 18:30:42;;;;;;;32.13;9.98;;;15.70;99.70;;;;;;6197588;22;95501;-80
2023/09/30 18:33:09;;;;;;;17.95;7.75;;;15.50;99.90;;;;;;6170206;22;95207;-79
2023/09/30 18:35:39;;;;;;;22.75;6.93;;;15.40;99.90;;;;;;6174985;22;92545;-80
2023/09/30 18:38:06;;;;;;;17.75;6.55;;;15.30;99.90;;;;;;6172292;22;91417;-79
2023/09/30 18:40:35;;;;;;;17.02;5.78;;;15.20;99.90;;;;;;6174065;22;92871;-80
2023/09/30 18:43:10;;;;;;;10.32;4.65;;;15.20;99.90;;;;;;6172530;22;92578;-80
2023/09/30 18:45:37;;;;;;;17.48;5.20;;;15.10;99.90;;;;;;6199651;22;92091;-81
2023/09/30 18:48:03;;;;;;;10.93;4.72;;;15.00;99.90;;;;;;6171111;22;92147;-80
2023/09/30 18:50:29;;;;;;;16.20;4.85;;;15.00;99.90;;;;;;6172833;22;91766;-79
2023/09/30 18:52:55;;;;;;;10.00;3.85;;;14.90;99.90;;;;;;6171675;22;94304;-80
2023/09/30 18:55:20;;;;;;;13.35;4.47;;;14.80;99.90;;;;;;6173873;22;92526;-80
2023/09/30 18:57:46;;;;;;;11.30;4.10;;;14.80;99.90;;;;;;6166600;22;93372;-80
2023/09/30 19:00:12;;;;;;;10.40;3.95;;;14.80;99.90;;;;;;6166780;22;93174;-80
2023/09/30 19:02:38;;;;;;;5.38;3.55;;;14.80;99.90;;;;;;6193567;22;92730;-79
2023/09/30 19:05:04;;;;;;;6.50;4.13;;;14.80;99.90;;;;;;6167204;22;92468;-79
2023/09/30 19:07:30;;;;;;;8.88;4.30;;;14.70;99.90;;;;;;6169727;22;92607;-80
2023/09/30 19:09:56;;;;;;;7.78;4.63;;;14.70;99.90;;;;;;6169889;22;92511;-78
2023/09/30 19:12:21;;;;;;;6.57;3.60;;;14.70;99.90;;;;;;6175594;22;92067;-79
2023/09/30 19:14:47;;;;;;;9.73;3.55;;;14.60;99.90;;;;;;6176223;22;91409;-80
2023/09/30 19:17:13;;;;;;;5.93;3.70;;;14.50;99.90;;;;;;6171258;22;92736;-80
2023/09/30 19:19:38;;;;;;;10.68;3.95;;;14.40;99.90;;;;;;6169601;22;92420;-80
2023/09/30 19:22:05;;;;;;;8.02;4.20;;;14.40;99.90;;;;;;6195756;22;93720;-81
2023/09/30 19:24:31;;;;;;;5.53;3.83;;;14.30;99.90;;;;;;6175925;22;91558;-78
2023/09/30 19:26:56;;;;;;;11.07;4.90;;;14.20;99.90;;;;;;6171716;22;92157;-79
2023/09/30 19:29:22;;;;;;;8.63;3.95;;;14.10;99.90;;;;;;6174737;22;92536;-80
2023/09/30 19:31:49;;;;;;;9.68;4.15;;;14.00;99.90;;;;;;6200900;22;94012;-80
2023/09/30 19:34:15;;;;;;;7.63;3.90;;;14.00;99.90;;;;;;6201294;22;91794;-80
2023/09/30 19:36:41;;;;;;;5.95;4.13;;;13.80;99.90;;;;;;6175382;22;91865;-80
2023/09/30 19:39:06;;;;;;;8.77;4.18;;;13.80;99.90;;;;;;6163946;22;92447;-79
2023/09/30 19:41:38;;;;;;;7.07;4.38;;;13.70;99.90;;;;;;6201278;22;95115;-79
2023/09/30 19:44:04;;;;;;;5.45;3.90;;;13.60;99.90;;;;;;6173434;22;92385;-78
2023/09/30 19:46:29;;;;;;;8.20;4.18;;;13.60;99.90;;;;;;6193928;22;93007;-79
2023/09/30 19:48:55;;;;;;;11.75;5.03;;;13.50;99.90;;;;;;6167371;22;92527;-79
2023/09/30 19:51:24;;;;;;;7.47;4.47;;;13.50;99.90;;;;;;6202988;22;94833;-79
2023/09/30 19:53:50;;;;;;;7.93;3.90;;;13.30;99.90;;;;;;6201195;22;91938;-79
2023/09/30 19:56:16;;;;;;;9.10;5.35;;;13.30;99.90;;;;;;6177787;22;91892;-80
2023/09/30 19:58:41;;;;;;;8.63;4.30;;;13.20;99.90;;;;;;6196960;22;93094;-80
2023/09/30 20:01:11;;;;;;;8.13;4.88;;;13.20;99.90;;;;;;6171024;22;97021;-78
2023/09/30 20:03:37;;;;;;;6.00;4.15;;;13.10;99.90;;;;;;6200443;22;91271;-79
2023/09/30 20:06:19;;;;;;;8.90;4.38;;;13.00;99.90;;;;;;6177354;22;92104;-79
2023/09/30 20:08:49;;;;;;;7.78;4.45;;;13.00;99.90;;;;;;6175180;22;92031;-79
2023/09/30 20:11:24;;;;;;;10.70;4.65;;;12.90;99.90;;;;;;6178456;22;93312;-79
2023/09/30 20:13:53;;;;;;;9.80;4.82;;;12.80;99.90;;;;;;6175178;22;92093;-78
2023/09/30 20:16:19;;;;;;;10.60;5.07;;;12.70;99.90;;;;;;6175738;22;92819;-79
2023/09/30 20:18:45;;;;;;;10.35;4.82;;;12.70;99.90;;;;;;6197573;22;94409;-79
2023/09/30 20:21:12;;;;;;;7.28;4.28;;;12.60;99.90;;;;;;6168427;22;92228;-79
2023/09/30 20:23:39;;;;;;;8.93;4.75;;;12.50;99.90;;;;;;6172869;22;92539;-79
2023/09/30 20:26:06;;;;;;;11.02;5.07;;;12.50;99.90;;;;;;6174966;22;91693;-79
2023/09/30 20:28:32;;;;;;;12.70;5.50;;;12.50;99.90;;;;;;6173847;22;95197;-80
2023/09/30 20:30:58;;;;;;;8.75;5.20;;;12.40;99.90;;;;;;6177295;22;92597;-79
2023/09/30 20:33:24;;;;;;;10.35;5.20;;;12.40;99.90;;;;;;6178963;22;91723;-79
2023/09/30 20:35:51;;;;;;;7.43;4.85;;;12.30;99.90;;;;;;6172929;22;92891;-78
2023/09/30 20:38:18;;;;;;;7.70;4.32;;;12.30;99.90;;;;;;6199257;22;92697;-79
2023/09/30 20:40:44;;;;;;;8.07;4.95;;;12.30;99.90;;;;;;6173096;22;93253;-79
2023/09/30 20:43:10;;;;;;;9.52;4.80;;;12.20;99.90;;;;;;6173762;22;92486;-79
2023/09/30 20:45:36;;;;;;;9.65;5.10;;;12.20;99.90;;;;;;6166851;22;92058;-79
2023/09/30 20:48:02;;;;;;;9.25;5.07;;;12.10;99.90;;;;;;6177048;22;91789;-80
2023/09/30 20:50:28;;;;;;;10.25;4.90;;;12.10;99.90;;;;;;6175248;22;94953;-78
2023/09/30 20:52:55;;;;;;;9.02;4.93;;;12.10;99.90;;;;;;6173453;22;91814;-79
2023/09/30 20:55:21;;;;;;;9.38;5.03;;;12.00;99.90;;;;;;6177354;22;91811;-80
2023/09/30 20:57:46;;;;;;;7.25;4.60;;;12.00;99.90;;;;;;6175117;22;93400;-80
2023/09/30 21:00:17;;;;;;;11.85;6.00;;;11.90;99.90;;;;;;6175003;22;95411;-79
2023/09/30 21:02:43;;;;;;;8.43;5.43;;;11.90;99.90;;;;;;6174080;22;92436;-79
2023/09/30 21:05:09;;;;;;;9.60;5.28;;;11.80;99.90;;;;;;6173311;22;91966;-79
2023/09/30 21:07:35;;;;;;;8.68;5.05;;;11.70;99.90;;;;;;6173470;22;92165;-79
2023/09/30 21:10:00;;;;;;;11.73;5.70;;;11.70;99.90;;;;;;6200283;22;94420;-79
2023/09/30 21:12:26;;;;;;;12.30;6.22;;;11.70;99.90;;;;;;6171132;22;92076;-80
2023/09/30 21:14:52;;;;;;;13.05;5.55;;;11.60;99.90;;;;;;6162144;22;92626;-78
2023/09/30 21:17:18;;;;;;;12.63;5.85;;;11.60;99.90;;;;;;6177171;22;92521;-80
2023/09/30 21:19:44;;;;;;;11.00;5.38;;;11.50;99.90;;;;;;6173921;22;93685;-79
2023/09/30 21:22:10;;;;;;;8.88;5.97;;;11.50;99.90;;;;;;6190559;22;91664;-79
2023/09/30 21:24:36;;;;;;;9.10;5.40;;;11.50;99.90;;;;;;6202034;22;93080;-79
2023/09/30 21:27:02;;;;;;;10.63;5.35;;;11.50;99.90;;;;;;6176884;22;93084;-80
2023/09/30 21:29:28;;;;;;;10.52;5.88;;;11.40;99.90;;;;;;6178557;22;92065;-80
2023/09/30 21:31:54;;;;;;;11.98;5.07;;;11.40;99.90;;;;;;6177746;22;92218;-79
2023/09/30 21:34:20;;;;;;;9.27;5.95;;;11.40;99.90;;;;;;6179093;22;91872;-80
2023/09/30 21:36:46;;;;;;;9.85;5.93;;;11.40;99.90;;;;;;6202543;22;93202;-80
2023/09/30 21:39:13;;;;;;;12.35;5.97;;;11.40;99.90;;;;;;6178708;22;92726;-79
2023/09/30 21:41:39;;;;;;;10.77;6.20;;;11.30;99.90;;;;;;6180878;22;90856;-79
2023/09/30 21:44:05;;;;;;;11.02;6.45;;;11.30;99.90;;;;;;6178484;22;91988;-78
2023/09/30 21:46:32;;;;;;;11.02;6.20;;;11.30;99.90;;;;;;6178985;22;91521;-79
2023/09/30 21:48:59;;;;;;;11.07;6.20;;;11.30;99.90;;;;;;6179036;22;92831;-80
